Weather reports worldwide

Advertisment
Monte Settepani, Italy (16111): temperature & dewpoint: 08.12.2018 00:00:00 - 14.12.2018 00:00:00 (CET)Monte Settepani, Italy (16111): wind speed: 08.12.2018 00:00:00 - 14.12.2018 00:00:00 (CET)Monte Settepani, Italy (16111): wind direction: 08.12.2018 00:00:00 - 14.12.2018 00:00:00 (CET)Monte Settepani, Italy (16111): precipitation: 08.12.2018 00:00:00 - 14.12.2018 00:00:00 (CET)
Date & Time tt [°C] td [°C] ff [km/h] ff [kn] dd rr [mm]
14.12.2018 00:00:00 -5,5 -5,8 28 15 N -
13.12.2018 23:00:00 -5,8 -6,2 29 16 NNE -
13.12.2018 22:00:00 -5,9 -6,3 37 20 N -
13.12.2018 21:00:00 -6,1 -7,1 24 13 N -
13.12.2018 20:00:00 -5,8 -7,5 21 11 N -
13.12.2018 19:00:00 -5,8 -7,6 16 9 NNW 0,0
13.12.2018 18:00:00 -5,8 -7,9 15 8 NNW -
13.12.2018 17:00:00 -5,7 -7,7 28 15 NNW -
13.12.2018 16:00:00 -5,5 -7,2 16 9 NW -
13.12.2018 15:00:00 -5,1 -7,0 21 11 NE -
13.12.2018 14:00:00 -5,1 -7,3 29 16 NW -
13.12.2018 13:00:00 -5,2 -7,8 21 11 WNW 0,0
13.12.2018 12:00:00 -5,3 -7,5 29 16 N -
13.12.2018 11:00:00 -5,7 -6,7 28 15 NNW -
13.12.2018 10:00:00 -5,7 -6,4 31 17 N -
13.12.2018 09:00:00 -5,8 -6,8 22 12 NW -
13.12.2018 08:00:00 -5,9 -7,0 18 10 NNE -
13.12.2018 07:00:00 -5,5 -8,9 18 10 W 0,0
13.12.2018 06:00:00 -5,2 -9,0 16 9 WNW -
13.12.2018 05:00:00 -4,9 -7,5 16 9 N -
13.12.2018 04:00:00 -4,6 -6,0 18 10 WNW -
13.12.2018 03:00:00 -4,4 -7,7 21 11 NNW -
13.12.2018 02:00:00 -4,0 -5,0 21 11 NNW -
13.12.2018 01:00:00 -4,3 -5,3 21 11 NW 0,0
13.12.2018 00:00:00 -4,4 -5,8 21 11 NW -
12.12.2018 23:00:00 -3,7 -6,4 16 9 NNW -
12.12.2018 22:00:00 -2,2 -2,8 4 2 N -
12.12.2018 21:00:00 -1,7 -2,3 4 2 NNE -
12.12.2018 20:00:00 -1,2 -1,5 2 1 ESE -
12.12.2018 19:00:00 -1,4 -1,8 0 0 N 0,0
12.12.2018 18:00:00 -2,0 -2,7 0 0 N -
12.12.2018 17:00:00 -2,1 -3,2 4 2 N -
12.12.2018 16:00:00 -1,4 -2,4 0 0 N -
12.12.2018 15:00:00 -1,3 -2,3 2 1 N -
12.12.2018 14:00:00 -1,5 -4,2 0 0 N -
12.12.2018 13:00:00 -1,1 -3,7 4 2 N 0,0
12.12.2018 12:00:00 -0,5 -1,7 0 0 N -
12.12.2018 11:00:00 -0,5 -1,4 2 1 NNE -
12.12.2018 10:00:00 -1,2 -2,1 5 3 N -
12.12.2018 09:00:00 -1,5 -2,2 8 4 N -
12.12.2018 08:00:00 -1,2 -2,4 4 2 N -
12.12.2018 07:00:00 -1,4 -4,0 4 2 N 0,0
12.12.2018 06:00:00 -1,1 -4,3 4 2 NNE -
12.12.2018 05:00:00 -0,2 -2,6 4 2 ENE -
12.12.2018 04:00:00 0,2 -2,7 4 2 ESE -
12.12.2018 03:00:00 0,1 -4,0 5 3 SE -
12.12.2018 02:00:00 0,2 -5,9 4 2 SSE -
12.12.2018 01:00:00 0,4 -5,5 8 4 S 0,0
12.12.2018 00:00:00 0,5 -4,2 5 3 SSE -
11.12.2018 23:00:00 0,6 -3,4 2 1 S -
11.12.2018 22:00:00 1,0 -2,3 4 2 SSW -
11.12.2018 21:00:00 0,2 -3,1 4 2 SW -
11.12.2018 20:00:00 0,8 -2,3 4 2 SW -
11.12.2018 19:00:00 1,0 -2,5 2 1 SSW 0,0
11.12.2018 18:00:00 0,8 -6,2 0 0 N -
11.12.2018 17:00:00 0,5 -6,9 5 3 N -
11.12.2018 16:00:00 1,3 -8,4 4 2 NNE -
11.12.2018 15:00:00 2,8 -6,5 5 3 S -
11.12.2018 14:00:00 1,8 -8,7 8 4 NNW -
11.12.2018 13:00:00 2,0 -7,7 8 4 NE 0,0
11.12.2018 12:00:00 1,9 -6,5 9 5 N -
11.12.2018 11:00:00 1,7 -6,5 8 4 N -
11.12.2018 10:00:00 1,4 -6,8 5 3 NNW -
11.12.2018 09:00:00 1,4 -3,2 0 0 N -
11.12.2018 08:00:00 1,0 -0,8 5 3 W -
11.12.2018 07:00:00 1,4 -2,6 5 3 SW 0,0
11.12.2018 06:00:00 2,0 -5,7 4 2 SSW -
11.12.2018 05:00:00 2,4 -9,3 0 0 N -
11.12.2018 04:00:00 2,5 -7,5 4 2 S -
11.12.2018 03:00:00 2,1 -5,9 4 2 SSW -
11.12.2018 02:00:00 2,5 -7,8 4 2 W -
11.12.2018 01:00:00 1,9 -5,6 8 4 W 0,0
11.12.2018 00:00:00 2,1 -7,6 5 3 SSW -
10.12.2018 23:00:00 2,5 -7,5 4 2 SSE -
10.12.2018 22:00:00 3,0 -7,6 11 6 NNW -
10.12.2018 21:00:00 2,3 -5,0 11 6 WNW -
10.12.2018 20:00:00 2,2 -5,1 8 4 NNW -
10.12.2018 19:00:00 2,5 -4,6 13 7 NNW 0,0
10.12.2018 18:00:00 2,7 -6,5 11 6 NNW -
10.12.2018 17:00:00 3,6 -7,1 15 8 NNW -
10.12.2018 16:00:00 4,7 -5,5 9 5 NE -
10.12.2018 15:00:00 5,9 -4,4 9 5 NE -
10.12.2018 14:00:00 5,7 -5,4 16 9 N -
10.12.2018 13:00:00 6,0 -5,8 9 5 E 0,0
10.12.2018 12:00:00 6,0 -4,0 9 5 NNW -
10.12.2018 11:00:00 4,5 -5,1 11 6 N -
10.12.2018 10:00:00 3,5 -3,2 9 5 S -
10.12.2018 09:00:00 2,5 -3,1 11 6 WNW -
10.12.2018 08:00:00 1,8 -3,8 13 7 NNE -
10.12.2018 07:00:00 2,4 -3,4 28 15 N 0,0
10.12.2018 06:00:00 2,5 -3,5 31 17 NW -
10.12.2018 05:00:00 3,1 -5,2 16 9 N -
10.12.2018 04:00:00 4,0 -5,3 9 5 NE -
10.12.2018 03:00:00 4,4 -5,5 11 6 SSW -
10.12.2018 02:00:00 4,2 -5,7 15 8 SSW -
10.12.2018 01:00:00 3,8 -5,5 15 8 W 0,0
10.12.2018 00:00:00 3,7 -5,1 13 7 WSW -
09.12.2018 23:00:00 3,9 -5,4 16 9 SW -
09.12.2018 22:00:00 4,4 -6,9 18 10 SSW -
09.12.2018 21:00:00 4,5 -7,1 18 10 SSW -
09.12.2018 20:00:00 4,4 -6,3 16 9 SSW -
09.12.2018 19:00:00 4,0 -5,1 15 8 S 0,0
09.12.2018 18:00:00 4,2 -5,7 11 6 N -
09.12.2018 17:00:00 5,8 -5,9 11 6 WNW -
09.12.2018 16:00:00 7,1 -3,6 15 8 N -
09.12.2018 15:00:00 8,4 -1,8 15 8 N -
09.12.2018 14:00:00 9,5 -2,6 15 8 NNE -
09.12.2018 13:00:00 10,3 -2,5 8 4 WNW 0,0
09.12.2018 12:00:00 9,8 -2,3 9 5 ENE -
09.12.2018 11:00:00 10,1 -2,0 8 4 W -
09.12.2018 10:00:00 10,8 -3,1 11 6 S -
09.12.2018 09:00:00 9,6 -5,3 9 5 W -
09.12.2018 08:00:00 8,9 -7,0 11 6 W -
09.12.2018 07:00:00 7,3 -6,6 11 6 SSW 0,0
09.12.2018 06:00:00 8,9 -5,9 11 6 SW -
09.12.2018 05:00:00 9,2 -4,5 9 5 S -
09.12.2018 04:00:00 8,7 -2,7 5 3 S -
09.12.2018 03:00:00 7,5 -6,8 9 5 SW -
09.12.2018 02:00:00 6,5 -8,0 16 9 S -
09.12.2018 01:00:00 6,9 -9,2 21 11 S 0,0
09.12.2018 00:00:00 7,7 -9,8 26 14 SSW -
08.12.2018 23:00:00 6,8 -6,3 28 15 SW -
08.12.2018 22:00:00 6,3 -6,4 21 11 SSW -
08.12.2018 21:00:00 5,3 -6,4 15 8 S -
08.12.2018 20:00:00 5,4 -6,0 9 5 SSW -
08.12.2018 19:00:00 5,2 -9,9 5 3 SW 0,0
08.12.2018 18:00:00 5,4 -9,4 8 4 N -
08.12.2018 17:00:00 5,6 -9,6 11 6 WNW -
08.12.2018 16:00:00 6,7 -9,8 9 5 NNW -
08.12.2018 15:00:00 8,3 -7,6 5 3 NW -
08.12.2018 14:00:00 6,7 -7,5 5 3 S -
08.12.2018 13:00:00 5,8 -8,3 15 8 WSW 0,0
08.12.2018 12:00:00 5,7 -8,4 11 6 SW -
08.12.2018 11:00:00 5,2 -8,1 5 3 SSE -
08.12.2018 10:00:00 4,1 -8,1 9 5 NNE -
08.12.2018 09:00:00 2,9 -8,9 11 6 SSW -
08.12.2018 08:00:00 2,2 -8,9 15 8 NW -
08.12.2018 07:00:00 1,5 -7,4 15 8 S 0,0
08.12.2018 06:00:00 1,0 -5,1 16 9 N -
08.12.2018 05:00:00 1,2 -3,0 18 10 NNE -
08.12.2018 04:00:00 1,1 0,7 15 8 WNW -
08.12.2018 03:00:00 2,9 2,9 28 15 NNW -
08.12.2018 02:00:00 3,2 3,2 31 17 N -
08.12.2018 01:00:00 6,0 6,0 8 4 N 0,0
08.12.2018 00:00:00 3,9 3,9 11 6 NW -

tt = temperature
td = dewpoint
ff = wind speed
dd = wind direction
rr = precipitation

Next stations